Detroit Lakes, Minnesota
Current Conditions -  °F | °C
As of 2:36 AM on Thursday 27 Nov 2014 (Local Time) from KDTL Reporting Station
Clear Clear  
Wind Chill: -21°   Ceiling: Unl
Heat Index: -9°   Visibility: 10mi
Dew Point: -13°   Wind: 5mph
Humidity: 84%   Direction: 340°NNW
Pressure: 30.49"   Gusts: NA
Location:  46.82°N, 95.84°W
Report Text: KDTL 270836Z AUTO 34004KT 10SM CLR M23/M25 A3049 RMK AO2
Loading
Personal Weather Stations






























Interactive Weather Map New forecast layout! Learn more

10-Day Weather Forecast

Advertisements
Track Severe Weather on mobile